Time;durP1;ratioP1;P1;durP2;ratioP2;P2;SDS_P1;SDS_P2;PMS_P1;PMS_P2;Temp;Humidity;BMP_temperature;BMP_pressure;BME280_temperature;BME280_humidity;BME280_pressure;Samples;Min_cycle;Max_cycle;Signal;HPM_P1;HPM_P2
2023/06/04 00:01:36;;;;;;;12.57;7.27;;;;;;;10.02;58.40;101479.53;5012844;28;20287;-68
2023/06/04 00:04:02;;;;;;;11.27;6.87;;;;;;;9.98;60.05;101472.50;5015361;28;20201;-68
2023/06/04 00:06:29;;;;;;;7.97;4.77;;;;;;;9.91;59.70;101467.66;5013743;28;20211;-68
2023/06/04 00:08:56;;;;;;;9.90;5.87;;;;;;;9.87;61.02;101468.53;5015366;28;20203;-68
2023/06/04 00:11:22;;;;;;;10.33;4.93;;;;;;;9.83;61.55;101472.88;5009910;28;20256;-68
2023/06/04 00:13:49;;;;;;;9.20;5.37;;;;;;;9.77;61.65;101472.19;5012448;28;20232;-68
2023/06/04 00:16:15;;;;;;;7.30;5.03;;;;;;;9.69;60.74;101466.84;5018874;28;20212;-68
2023/06/04 00:18:47;;;;;;;8.63;4.60;;;;;;;9.64;61.69;101467.72;5025241;28;20219;-68
2023/06/04 00:21:13;;;;;;;6.43;4.73;;;;;;;9.58;62.58;101468.16;5016469;28;20208;-67
2023/06/04 00:23:41;;;;;;;8.40;5.27;;;;;;;9.51;62.98;101467.75;5014791;28;20223;-67
2023/06/04 00:26:09;;;;;;;7.33;4.83;;;;;;;9.44;62.45;101464.75;5018500;28;20193;-67
2023/06/04 00:28:38;;;;;;;7.83;4.73;;;;;;;9.37;62.97;101461.75;5020035;28;20262;-68
2023/06/04 00:31:06;;;;;;;6.43;4.70;;;;;;;9.30;63.17;101467.41;5017534;28;20231;-67
2023/06/04 00:33:34;;;;;;;9.17;4.20;;;;;;;9.27;64.46;101467.97;5017117;28;20225;-67
2023/06/04 00:36:01;;;;;;;5.40;4.17;;;;;;;9.22;64.41;101469.97;5018852;28;20201;-67
2023/06/04 00:38:27;;;;;;;7.83;5.07;;;;;;;9.16;64.50;101466.63;5020817;28;20207;-67
2023/06/04 00:40:55;;;;;;;9.13;4.70;;;;;;;9.09;65.05;101460.19;5017245;28;20208;-67
2023/06/04 00:43:25;;;;;;;7.03;4.60;;;;;;;9.05;65.99;101461.84;5022232;28;20235;-67
2023/06/04 00:46:08;;;;;;;8.10;5.27;;;;;;;8.99;65.19;101460.38;5037609;28;20251;-68
2023/06/04 00:48:37;;;;;;;6.67;4.37;;;;;;;8.93;65.75;101459.72;5014216;28;20292;-67
2023/06/04 00:51:04;;;;;;;6.47;4.20;;;;;;;8.90;66.08;101462.94;5021225;28;20223;-67
2023/06/04 00:53:33;;;;;;;7.13;4.90;;;;;;;8.85;66.42;101460.41;5020678;28;20578;-68
2023/06/04 00:56:01;;;;;;;9.73;4.17;;;;;;;8.79;66.18;101455.50;5018721;28;20300;-67
2023/06/04 00:58:28;;;;;;;5.30;3.33;;;;;;;8.77;66.69;101457.66;5022726;28;20205;-67
2023/06/04 01:01:02;;;;;;;6.70;3.67;;;;;;;8.71;67.34;101456.19;5012986;28;20289;-68
2023/06/04 01:03:31;;;;;;;7.20;3.40;;;;;;;8.69;67.61;101453.84;5024789;28;20626;-68
2023/06/04 01:06:14;;;;;;;4.97;3.03;;;;;;;8.60;66.41;101447.69;5014127;28;20563;-67
2023/06/04 01:08:43;;;;;;;6.53;3.10;;;;;;;8.56;67.16;101452.00;5016139;28;20204;-68
2023/06/04 01:11:11;;;;;;;6.33;3.23;;;;;;;8.51;67.40;101446.81;5021228;28;20273;-68
2023/06/04 01:13:37;;;;;;;6.90;3.33;;;;;;;8.47;68.58;101445.03;5020537;28;20789;-67
2023/06/04 01:16:04;;;;;;;5.17;2.70;;;;;;;8.42;68.35;101447.75;5017969;28;20687;-67
2023/06/04 01:18:36;;;;;;;3.90;2.30;;;;;;;8.39;69.03;101451.75;5015608;28;20200;-68
2023/06/04 01:21:08;;;;;;;5.80;2.47;;;;;;;8.38;69.14;101450.19;5022087;28;20212;-68
2023/06/04 01:23:42;;;;;;;5.03;2.60;;;;;;;8.33;68.78;101449.50;5014802;28;20310;-67
2023/06/04 01:26:13;;;;;;;3.93;2.00;;;;;;;8.30;69.74;101448.25;5014146;28;20192;-67
2023/06/04 01:28:40;;;;;;;2.37;1.90;;;;;;;8.25;68.79;101450.16;5032910;28;20209;-67
2023/06/04 01:31:09;;;;;;;2.83;2.17;;;;;;;8.24;69.58;101443.34;5015765;28;20270;-68
2023/06/04 01:33:36;;;;;;;4.03;2.20;;;;;;;8.20;69.96;101443.13;5031239;28;20243;-68
2023/06/04 01:36:02;;;;;;;2.80;2.27;;;;;;;8.16;70.46;101439.50;5014617;28;20213;-67
2023/06/04 01:38:29;;;;;;;3.70;1.87;;;;;;;8.14;70.70;101446.09;5019252;28;20678;-67
2023/06/04 01:41:00;;;;;;;6.77;2.27;;;;;;;8.09;69.70;101441.72;5014239;28;20209;-67
2023/06/04 01:43:28;;;;;;;5.70;2.13;;;;;;;8.06;71.27;101437.03;5012028;28;20429;-67
2023/06/04 01:45:56;;;;;;;4.23;1.80;;;;;;;8.00;70.79;101435.53;5014779;28;20215;-68
2023/06/04 01:48:26;;;;;;;5.80;3.40;;;;;;;7.94;70.43;101436.69;5013246;28;20636;-67
2023/06/04 01:50:52;;;;;;;3.73;2.27;;;;;;;7.89;70.88;101435.97;5015633;28;20357;-67
2023/06/04 01:53:21;;;;;;;5.53;2.50;;;;;;;7.83;70.61;101437.13;5025144;28;20224;-68
2023/06/04 01:55:49;;;;;;;5.17;2.40;;;;;;;7.77;70.38;101438.28;5019881;28;20204;-67
2023/06/04 01:58:17;;;;;;;3.30;2.37;;;;;;;7.70;70.55;101443.88;5018451;28;20553;-67
2023/06/04 02:00:45;;;;;;;5.10;2.90;;;;;;;7.72;72.76;101443.59;5008992;28;20556;-68
2023/06/04 02:03:12;;;;;;;4.33;2.43;;;;;;;7.68;71.83;101442.59;5016632;28;20248;-67
2023/06/04 02:05:44;;;;;;;4.63;2.03;;;;;;;7.63;72.73;101438.22;5023372;28;20201;-67
2023/06/04 02:08:11;;;;;;;2.67;2.20;;;;;;;7.60;71.55;101440.59;5032152;28;20679;-68
2023/06/04 02:10:37;;;;;;;4.23;2.17;;;;;;;7.54;71.60;101447.00;5018117;28;20212;-67
2023/06/04 02:13:04;;;;;;;3.33;2.30;;;;;;;7.48;71.76;101450.75;5014885;28;20251;-67
2023/06/04 02:15:32;;;;;;;4.13;2.40;;;;;;;7.44;72.30;101439.25;5014749;28;20197;-67
2023/06/04 02:18:15;;;;;;;4.83;2.23;;;;;;;7.41;72.95;101447.72;5020495;28;20303;-67
2023/06/04 02:20:42;;;;;;;3.13;2.27;;;;;;;7.36;72.82;101447.78;5018913;28;20216;-67
2023/06/04 02:23:08;;;;;;;3.23;2.17;;;;;;;7.33;73.13;101450.97;5019886;28;20224;-67
2023/06/04 02:25:35;;;;;;;4.47;2.27;;;;;;;7.31;73.32;101450.47;5014218;28;20588;-67
2023/06/04 02:28:01;;;;;;;3.17;1.97;;;;;;;7.30;72.49;101449.69;5021522;28;20589;-67
2023/06/04 02:30:30;;;;;;;3.10;1.80;;;;;;;7.26;73.15;101443.41;5019715;28;20545;-68
2023/06/04 02:33:00;;;;;;;3.47;2.00;;;;;;;7.25;73.44;101441.09;5012378;28;20227;-68
2023/06/04 02:35:29;;;;;;;5.30;2.17;;;;;;;7.21;72.91;101443.50;5019054;28;20201;-68
2023/06/04 02:37:57;;;;;;;3.90;2.20;;;;;;;7.14;72.74;101444.91;5018520;28;20209;-68
2023/06/04 02:40:24;;;;;;;7.07;2.20;;;;;;;7.05;72.22;101442.09;5016678;28;20219;-68
2023/06/04 02:42:50;;;;;;;3.07;1.80;;;;;;;7.03;73.98;101446.88;5014955;28;20231;-68
2023/06/04 02:45:17;;;;;;;5.17;2.13;;;;;;;7.02;73.69;101445.31;5018428;28;20215;-67
2023/06/04 02:47:43;;;;;;;5.60;2.30;;;;;;;6.98;74.16;101446.13;5015338;28;20259;-67
2023/06/04 02:50:10;;;;;;;2.93;1.93;;;;;;;6.96;74.35;101445.63;5014343;28;20284;-68
2023/06/04 02:52:39;;;;;;;4.00;2.07;;;;;;;6.94;73.74;101450.41;5012958;28;20236;-68
2023/06/04 02:55:07;;;;;;;3.10;2.10;;;;;;;6.86;72.96;101451.00;5010933;28;20572;-67
2023/06/04 02:57:36;;;;;;;2.97;1.83;;;;;;;6.80;72.92;101442.41;5018681;28;20559;-68
2023/06/04 03:00:11;;;;;;;3.90;2.10;;;;;;;6.74;73.24;101440.88;5015528;28;20209;-67
2023/06/04 03:02:38;;;;;;;8.50;2.63;;;;;;;6.77;73.97;101447.41;5013978;28;20234;-68
2023/06/04 03:05:05;;;;;;;4.90;2.03;;;;;;;6.72;73.69;101447.47;5013046;28;20223;-67
2023/06/04 03:07:32;;;;;;;4.90;1.70;;;;;;;6.72;74.17;101447.47;5018232;28;20205;-68
2023/06/04 03:09:59;;;;;;;3.47;2.10;;;;;;;6.72;75.02;101447.47;5009920;28;20208;-67
2023/06/04 03:12:26;;;;;;;4.07;2.20;;;;;;;6.74;75.00;101455.88;5010552;28;20319;-68
2023/06/04 03:14:52;;;;;;;4.40;2.30;;;;;;;6.73;75.34;101452.44;5011038;28;20208;-68
2023/06/04 03:17:21;;;;;;;4.83;2.00;;;;;;;6.71;74.43;101451.16;5019204;28;20263;-68
2023/06/04 03:19:47;;;;;;;5.70;2.53;;;;;;;6.71;74.55;101446.69;5021194;28;20567;-67
2023/06/04 03:22:14;;;;;;;2.80;1.77;;;;;;;6.74;75.49;101454.00;5011130;28;20228;-68
2023/06/04 03:24:41;;;;;;;11.13;2.03;;;;;;;6.71;74.29;101453.78;5012194;28;20204;-68
2023/06/04 03:27:10;;;;;;;3.33;2.00;;;;;;;6.71;74.35;101457.19;5009612;28;20223;-67
2023/06/04 03:29:38;;;;;;;3.93;2.07;;;;;;;6.74;74.38;101455.88;5014789;28;20220;-67
2023/06/04 03:32:07;;;;;;;9.23;2.00;;;;;;;6.76;74.37;101461.59;5013468;28;20238;-67
2023/06/04 03:34:34;;;;;;;3.30;1.87;;;;;;;6.84;75.12;101461.78;5015124;28;20208;-67
2023/06/04 03:37:01;;;;;;;3.70;1.80;;;;;;;6.89;75.54;101461.72;5016833;28;20212;-67
2023/06/04 03:39:30;;;;;;;2.10;1.83;;;;;;;6.93;74.70;101461.94;5014937;28;20200;-67
2023/06/04 03:41:58;;;;;;;3.23;1.50;;;;;;;6.99;74.39;101466.84;5014687;28;20223;-67
2023/06/04 03:44:26;;;;;;;2.10;1.60;;;;;;;7.04;75.19;101466.81;5011886;28;20197;-67
2023/06/04 03:46:53;;;;;;;4.33;2.20;;;;;;;7.13;74.93;101459.88;5017473;28;20211;-67
2023/06/04 03:49:21;;;;;;;3.53;1.60;;;;;;;7.19;75.47;101465.88;5013005;28;20236;-67
2023/06/04 03:51:49;;;;;;;5.40;2.03;;;;;;;7.27;74.27;101463.38;5032843;28;20232;-67
2023/06/04 03:54:17;;;;;;;2.63;2.10;;;;;;;7.36;74.86;101468.78;5026068;28;20212;-67
2023/06/04 03:56:45;;;;;;;3.07;1.57;;;;;;;7.43;75.13;101467.38;5017152;28;20219;-67
2023/06/04 03:59:12;;;;;;;3.47;1.90;;;;;;;7.51;73.66;101469.38;5016445;28;20211;-67
2023/06/04 04:01:44;;;;;;;3.40;1.90;;;;;;;7.59;72.90;101468.75;5017581;28;20211;-67
2023/06/04 04:04:13;;;;;;;3.97;1.50;;;;;;;7.68;73.30;101479.41;5018169;28;20208;-67
2023/06/04 04:06:39;;;;;;;3.60;1.90;;;;;;;7.76;73.02;101479.53;5021352;28;20801;-67
2023/06/04 04:09:07;;;;;;;3.50;1.90;;;;;;;7.89;72.62;101476.22;5025602;28;20212;-68
2023/06/04 04:11:34;;;;;;;2.00;1.67;;;;;;;7.95;72.51;101467.19;5015377;28;20216;-67
2023/06/04 04:14:02;;;;;;;3.37;1.80;;;;;;;8.04;72.30;101480.47;5015852;28;20212;-67
2023/06/04 04:16:30;;;;;;;3.30;1.87;;;;;;;8.12;71.79;101474.56;5024963;28;20196;-67
2023/06/04 04:18:58;;;;;;;5.03;2.20;;;;;;;8.23;71.98;101479.38;5016074;28;20204;-67
2023/06/04 04:21:26;;;;;;;3.77;2.60;;;;;;;8.36;71.51;101481.28;5020265;28;20212;-68
2023/06/04 04:23:52;;;;;;;3.53;1.93;;;;;;;8.48;71.45;101470.28;5015428;28;20196;-67
2023/06/04 04:26:21;;;;;;;2.20;1.80;;;;;;;8.60;71.14;101470.63;5021121;28;20223;-68
2023/06/04 04:28:52;;;;;;;4.20;1.80;;;;;;;8.74;70.59;101466.13;5015364;28;20212;-68
2023/06/04 04:31:18;;;;;;;2.63;1.70;;;;;;;8.86;70.90;101472.47;5035026;28;20211;-68
2023/06/04 04:33:45;;;;;;;2.83;1.90;;;;;;;8.95;69.56;101473.38;5015338;28;20228;-68
2023/06/04 04:36:18;;;;;;;1.60;1.50;;;;;;;9.10;70.48;101465.19;5015189;28;20587;-68
2023/06/04 04:38:54;;;;;;;1.93;1.70;;;;;;;9.24;70.25;101478.34;5029141;28;20199;-68
2023/06/04 04:41:22;;;;;;;3.03;1.90;;;;;;;9.40;70.00;101476.94;5019990;28;20246;-68
2023/06/04 04:43:48;;;;;;;3.43;1.70;;;;;;;9.50;68.48;101480.16;5021935;28;20221;-68
2023/06/04 04:46:20;;;;;;;3.17;1.90;;;;;;;9.60;67.32;101476.53;5019698;28;20730;-68
2023/06/04 04:48:51;;;;;;;2.00;1.80;;;;;;;9.69;67.69;101477.38;5026059;28;20207;-68
2023/06/04 04:51:18;;;;;;;3.90;1.90;;;;;;;9.80;67.14;101482.16;5028096;28;20198;-68
2023/06/04 04:53:46;;;;;;;5.07;2.17;;;;;;;9.94;67.40;101476.81;5014132;28;20304;-68
2023/06/04 04:56:20;;;;;;;2.50;2.00;;;;;;;10.07;66.92;101479.44;5015961;28;20804;-68
2023/06/04 04:58:51;;;;;;;4.47;2.03;;;;;;;10.22;66.47;101487.00;5014931;28;20216;-68
2023/06/04 05:01:18;;;;;;;3.73;1.87;;;;;;;10.35;65.01;101482.72;5016512;28;20208;-68
2023/06/04 05:03:45;;;;;;;4.23;1.80;;;;;;;10.46;64.10;101490.09;5016582;28;20229;-68
2023/06/04 05:06:16;;;;;;;2.87;1.80;;;;;;;10.57;63.07;101496.66;5015124;28;20205;-68
2023/06/04 05:08:45;;;;;;;2.07;1.57;;;;;;;10.70;63.77;101490.53;5017585;28;20208;-67
2023/06/04 05:11:13;;;;;;;3.40;1.80;;;;;;;10.81;63.20;101502.41;5015372;28;20218;-68
2023/06/04 05:13:41;;;;;;;3.07;1.90;;;;;;;10.90;60.67;101494.50;5033539;28;20224;-68
2023/06/04 05:16:11;;;;;;;2.73;1.90;;;;;;;11.00;60.88;101496.88;5015914;28;20299;-69
2023/06/04 05:18:40;;;;;;;5.03;2.03;;;;;;;11.11;61.62;101501.59;5013712;28;20208;-68
2023/06/04 05:21:08;;;;;;;5.93;1.87;;;;;;;11.23;61.74;101496.47;5028763;28;20214;-68
2023/06/04 05:23:39;;;;;;;2.63;2.00;;;;;;;11.34;62.32;101500.41;5014639;28;20618;-68
2023/06/04 05:26:08;;;;;;;2.03;1.70;;;;;;;11.47;61.99;101504.00;5014430;28;20206;-68
2023/06/04 05:28:35;;;;;;;2.20;1.90;;;;;;;11.59;62.20;101510.28;5029714;28;20291;-68
2023/06/04 05:31:13;;;;;;;4.50;1.83;;;;;;;11.73;62.04;101505.63;5014992;28;20206;-68
2023/06/04 05:33:39;;;;;;;6.07;1.73;;;;;;;11.85;61.53;101516.38;5013467;28;20277;-68
2023/06/04 05:36:12;;;;;;;4.03;1.80;;;;;;;11.96;60.47;101506.28;5015121;28;20619;-68
2023/06/04 05:38:44;;;;;;;4.77;2.47;;;;;;;12.11;58.44;101508.44;5031231;28;20230;-68
2023/06/04 05:41:15;;;;;;;5.83;2.20;;;;;;;12.21;57.60;101513.44;5030825;28;20214;-68
2023/06/04 05:43:44;;;;;;;2.20;1.80;;;;;;;12.33;59.21;101517.00;5012614;28;20613;-68
2023/06/04 05:46:11;;;;;;;1.90;1.70;;;;;;;12.47;58.89;101522.88;5013995;28;20716;-68
2023/06/04 05:48:42;;;;;;;6.10;2.23;;;;;;;12.58;57.19;101518.78;5017170;28;20214;-68
2023/06/04 05:51:08;;;;;;;4.93;2.43;;;;;;;12.70;57.14;101521.59;5014442;28;20208;-68
2023/06/04 05:53:37;;;;;;;4.90;2.27;;;;;;;12.81;56.40;101517.50;5009313;28;20267;-68
2023/06/04 05:56:03;;;;;;;3.70;1.80;;;;;;;12.92;55.07;101516.06;5027986;28;20471;-68
2023/06/04 05:58:34;;;;;;;3.50;1.60;;;;;;;13.06;55.64;101518.53;5015011;28;20227;-68
2023/06/04 06:01:01;;;;;;;2.40;1.73;;;;;;;13.19;53.83;101522.84;5011376;28;20204;-68
2023/06/04 06:03:27;;;;;;;5.57;1.80;;;;;;;13.29;52.85;101517.16;5012799;28;20707;-68
2023/06/04 06:05:58;;;;;;;1.63;1.43;;;;;;;13.43;52.29;101517.69;5011436;28;20294;-69
2023/06/04 06:08:24;;;;;;;3.17;2.00;;;;;;;13.53;51.15;101515.47;5024475;28;20296;-69
2023/06/04 06:10:51;;;;;;;4.47;1.60;;;;;;;13.65;51.24;101520.84;5011276;28;20204;-68
2023/06/04 06:13:18;;;;;;;2.47;1.77;;;;;;;13.77;51.18;101520.13;5010106;28;20220;-68
2023/06/04 06:15:47;;;;;;;4.37;1.60;;;;;;;13.92;47.65;101517.66;5010576;28;20243;-68
2023/06/04 06:18:13;;;;;;;4.33;1.40;;;;;;;14.02;50.31;101519.94;5010028;28;20221;-69
2023/06/04 06:20:41;;;;;;;2.70;1.50;;;;;;;14.14;50.13;101522.66;5011737;28;20302;-68
2023/06/04 06:23:08;;;;;;;2.37;1.60;;;;;;;14.23;48.78;101523.38;5012731;28;20231;-68
2023/06/04 06:25:40;;;;;;;1.90;1.30;;;;;;;14.36;48.86;101522.31;5027855;28;20611;-68
2023/06/04 06:28:11;;;;;;;2.93;1.17;;;;;;;14.50;47.83;101530.75;5013427;28;20201;-68
2023/06/04 06:30:38;;;;;;;2.13;1.27;;;;;;;14.63;47.18;101534.22;5010671;28;20300;-69
2023/06/04 06:33:06;;;;;;;2.43;1.37;;;;;;;14.75;47.98;101534.28;5013241;28;20504;-68
2023/06/04 06:35:32;;;;;;;3.20;1.33;;;;;;;14.86;44.97;101530.84;5011760;28;20210;-68
2023/06/04 06:37:59;;;;;;;3.47;1.33;;;;;;;14.97;45.77;101526.66;5011137;28;20202;-68
2023/06/04 06:40:25;;;;;;;4.97;1.43;;;;;;;15.09;47.13;101531.97;5012196;28;20198;-68
2023/06/04 06:42:52;;;;;;;2.03;1.50;;;;;;;15.20;46.39;101532.28;5011530;28;20223;-69
2023/06/04 06:45:18;;;;;;;5.27;1.67;;;;;;;15.33;46.03;101537.34;5012253;28;20195;-68
2023/06/04 06:47:45;;;;;;;1.57;1.20;;;;;;;15.48;45.15;101538.53;5011359;28;20619;-68
2023/06/04 06:50:12;;;;;;;3.60;1.20;;;;;;;15.59;44.42;101532.44;5011867;28;20216;-68
2023/06/04 06:52:39;;;;;;;2.07;1.20;;;;;;;15.73;45.17;101532.06;5011631;28;20737;-68
2023/06/04 06:55:06;;;;;;;2.33;1.17;;;;;;;15.83;44.86;101532.38;5010284;28;20694;-69
2023/06/04 06:57:34;;;;;;;3.80;1.40;;;;;;;15.98;43.80;101539.66;5010918;28;20687;-68
2023/06/04 07:00:00;;;;;;;1.87;1.23;;;;;;;16.10;45.42;101541.50;5010119;28;20606;-69
2023/06/04 07:02:26;;;;;;;3.13;1.30;;;;;;;16.21;43.18;101539.91;5009656;28;20587;-68
2023/06/04 07:04:53;;;;;;;4.43;1.30;;;;;;;16.31;41.39;101550.84;5009132;28;20219;-69
2023/06/04 07:07:20;;;;;;;2.97;1.07;;;;;;;16.41;43.81;101547.72;5008796;28;20205;-69
2023/06/04 07:09:47;;;;;;;2.80;1.17;;;;;;;16.53;41.91;101545.00;5009237;28;20215;-69
2023/06/04 07:12:13;;;;;;;3.33;1.50;;;;;;;16.63;43.66;101554.38;5008481;28;20228;-69
2023/06/04 07:14:39;;;;;;;1.97;1.40;;;;;;;16.74;42.51;101542.09;5007186;28;20209;-69
2023/06/04 07:17:06;;;;;;;2.43;1.20;;;;;;;16.86;41.40;101548.13;5008444;28;20212;-69
2023/06/04 07:19:32;;;;;;;3.10;1.40;;;;;;;16.98;41.21;101549.94;5008007;28;20269;-68
2023/06/04 07:21:58;;;;;;;3.17;1.23;;;;;;;17.08;41.49;101536.09;5009522;28;20229;-68
2023/06/04 07:24:26;;;;;;;2.33;1.00;;;;;;;17.21;39.98;101540.19;5011560;28;20231;-68
2023/06/04 07:26:53;;;;;;;1.90;1.20;;;;;;;17.31;37.12;101540.47;5010783;28;20206;-69
2023/06/04 07:29:20;;;;;;;2.67;1.00;;;;;;;17.38;37.89;101534.50;5009958;28;20298;-68
2023/06/04 07:31:46;;;;;;;1.43;1.20;;;;;;;17.47;38.44;101535.88;5011226;28;20208;-68
2023/06/04 07:34:12;;;;;;;1.30;1.10;;;;;;;17.56;37.23;101535.69;5024556;28;20997;-69
2023/06/04 07:36:39;;;;;;;1.70;1.20;;;;;;;17.65;39.49;101544.28;5010872;28;20884;-69
2023/06/04 07:39:05;;;;;;;4.00;1.30;;;;;;;17.76;39.05;101542.63;5010744;28;20208;-69
2023/06/04 07:41:33;;;;;;;2.03;1.10;;;;;;;17.86;37.87;101540.16;5010234;28;20210;-69
2023/06/04 07:43:59;;;;;;;2.13;1.30;;;;;;;17.95;39.24;101538.06;5010349;28;20215;-69
2023/06/04 07:46:26;;;;;;;1.70;1.20;;;;;;;18.06;37.96;101538.28;5010534;28;20212;-69
2023/06/04 07:48:52;;;;;;;1.03;0.90;;;;;;;18.18;36.24;101528.22;5011004;28;20901;-69
2023/06/04 07:51:19;;;;;;;1.13;1.00;;;;;;;18.30;35.76;101535.28;5007796;28;21098;-69
2023/06/04 07:53:45;;;;;;;1.10;1.00;;;;;;;18.39;36.52;101533.22;5007438;28;20226;-69
2023/06/04 07:56:12;;;;;;;2.03;1.40;;;;;;;18.51;36.87;101530.34;5009790;28;20213;-69
2023/06/04 07:58:40;;;;;;;1.73;1.20;;;;;;;18.57;35.95;101531.63;5007569;28;20545;-69
2023/06/04 08:01:07;;;;;;;1.93;0.90;;;;;;;18.65;33.59;101535.97;5008985;28;20211;-68
2023/06/04 08:03:33;;;;;;;3.53;1.07;;;;;;;18.73;34.16;101525.03;5009063;28;20637;-70
2023/06/04 08:06:00;;;;;;;3.23;1.00;;;;;;;18.82;33.95;101528.25;5007525;28;20204;-69
2023/06/04 08:08:26;;;;;;;0.90;0.67;;;;;;;18.92;34.74;101533.00;5007042;28;20209;-69
2023/06/04 08:10:52;;;;;;;1.07;0.90;;;;;;;18.97;34.07;101527.34;5006668;28;20209;-69
2023/06/04 08:13:20;;;;;;;1.60;0.97;;;;;;;19.01;31.59;101532.75;5020764;28;20219;-69
2023/06/04 08:15:48;;;;;;;2.03;0.87;;;;;;;19.08;31.53;101530.19;5005614;28;20217;-70
2023/06/04 08:18:14;;;;;;;1.13;0.83;;;;;;;19.15;30.60;101528.38;5006845;28;20215;-69
2023/06/04 08:20:41;;;;;;;1.10;1.00;;;;;;;19.19;30.39;101531.13;5007086;28;20213;-69
2023/06/04 08:23:07;;;;;;;1.00;0.90;;;;;;;19.22;32.07;101536.56;5008027;28;20239;-69
2023/06/04 08:25:33;;;;;;;3.43;1.10;;;;;;;19.25;32.64;101545.78;5005593;28;20208;-69
2023/06/04 08:28:00;;;;;;;1.63;1.00;;;;;;;19.31;31.73;101536.31;5006631;28;20205;-69
2023/06/04 08:30:27;;;;;;;1.70;1.00;;;;;;;19.34;31.16;101536.34;5005734;28;20683;-69
2023/06/04 08:32:55;;;;;;;1.03;0.80;;;;;;;19.41;31.87;101535.69;5004522;28;20221;-69
2023/06/04 08:35:21;;;;;;;3.17;0.97;;;;;;;19.45;30.41;101526.56;5005534;28;20208;-69
2023/06/04 08:37:47;;;;;;;1.43;0.97;;;;;;;19.56;31.46;101538.19;5005404;28;20255;-69
2023/06/04 08:40:14;;;;;;;2.57;1.00;;;;;;;19.58;30.88;101538.63;5004696;28;20319;-69
2023/06/04 08:42:44;;;;;;;1.10;0.80;;;;;;;19.65;30.32;101544.06;5005549;28;20224;-69
2023/06/04 08:45:13;;;;;;;2.83;0.90;;;;;;;19.72;29.72;101536.09;5004709;28;20204;-69
2023/06/04 08:47:44;;;;;;;1.20;0.80;;;;;;;19.77;28.24;101538.47;5004726;28;20200;-69
2023/06/04 08:50:13;;;;;;;2.53;1.20;;;;;;;19.84;30.52;101538.56;5005321;28;20675;-68
2023/06/04 08:52:40;;;;;;;2.77;0.90;;;;;;;19.92;29.62;101542.88;5004874;28;20235;-69
2023/06/04 08:55:09;;;;;;;2.20;0.80;;;;;;;19.96;30.36;101546.38;5003457;28;20247;-69
2023/06/04 08:57:36;;;;;;;3.13;0.80;;;;;;;20.01;29.08;101531.88;5003572;28;20208;-70
2023/06/04 09:00:03;;;;;;;2.33;0.80;;;;;;;20.06;29.05;101537.69;5003119;28;20694;-69
2023/06/04 09:02:30;;;;;;;0.70;0.70;;;;;;;20.12;30.00;101541.63;5004180;28;20227;-69
2023/06/04 09:04:57;;;;;;;1.27;0.90;;;;;;;20.20;30.18;101547.84;5001416;28;20604;-69
2023/06/04 09:07:25;;;;;;;1.17;1.00;;;;;;;20.27;29.49;101543.31;5002554;28;20570;-69
2023/06/04 09:09:52;;;;;;;2.47;0.83;;;;;;;20.37;29.63;101541.88;5001859;28;20208;-69
2023/06/04 09:12:23;;;;;;;1.10;0.80;;;;;;;20.44;29.30;101548.09;5003081;28;20220;-70
2023/06/04 09:14:51;;;;;;;1.50;0.70;;;;;;;20.51;29.41;101555.44;5002445;28;20220;-69
2023/06/04 09:17:22;;;;;;;1.27;0.80;;;;;;;20.55;28.94;101542.84;4998298;28;20422;-69
2023/06/04 09:19:50;;;;;;;0.90;0.77;;;;;;;20.59;27.99;101547.09;5000455;28;20615;-69
2023/06/04 09:22:16;;;;;;;0.70;0.70;;;;;;;20.64;25.87;101552.13;4999842;28;20349;-69
2023/06/04 09:24:46;;;;;;;3.77;0.93;;;;;;;20.66;28.68;101546.41;5000327;28;20215;-69
2023/06/04 09:27:14;;;;;;;2.47;1.03;;;;;;;20.73;26.17;101543.75;4999376;28;20288;-69
2023/06/04 09:29:41;;;;;;;2.00;0.63;;;;;;;20.74;28.73;101538.03;5013868;28;20210;-70
2023/06/04 09:32:07;;;;;;;2.07;0.80;;;;;;;20.77;27.43;101539.19;5000182;28;20779;-70
2023/06/04 09:34:35;;;;;;;1.50;0.80;;;;;;;20.81;26.87;101540.75;5000714;28;20216;-69
2023/06/04 09:37:01;;;;;;;2.33;1.00;;;;;;;20.84;27.48;101541.94;4998419;28;21355;-70
2023/06/04 09:39:27;;;;;;;3.30;1.00;;;;;;;20.89;27.39;101536.25;4999971;28;20219;-69
2023/06/04 09:42:02;;;;;;;1.50;0.80;;;;;;;20.93;27.19;101542.44;5000372;28;20315;-69
2023/06/04 09:44:30;;;;;;;0.90;0.80;;;;;;;20.97;26.39;101535.19;5000294;28;20750;-69
2023/06/04 09:46:58;;;;;;;1.97;0.93;;;;;;;21.00;26.73;101529.09;5000163;28;20201;-69
2023/06/04 09:49:24;;;;;;;0.67;0.60;;;;;;;21.02;27.92;101532.94;5001162;28;20232;-69
2023/06/04 09:51:51;;;;;;;0.70;0.60;;;;;;;21.05;26.10;101529.50;5000536;28;20220;-69
2023/06/04 09:54:18;;;;;;;1.60;0.90;;;;;;;21.11;27.15;101527.25;5000484;28;20220;-70
2023/06/04 09:56:44;;;;;;;1.20;0.83;;;;;;;21.15;26.72;101531.47;5000564;28;20204;-69
2023/06/04 09:59:13;;;;;;;2.10;0.80;;;;;;;21.18;26.29;101521.91;4999371;28;20208;-69
2023/06/04 10:01:42;;;;;;;1.13;0.87;;;;;;;21.21;25.99;101534.59;4999530;28;20208;-69
2023/06/04 10:04:11;;;;;;;2.10;0.80;;;;;;;21.26;27.23;101518.88;4999624;28;20210;-69
2023/06/04 10:06:40;;;;;;;1.40;0.93;;;;;;;21.31;25.90;101531.97;4999536;28;20227;-70
2023/06/04 10:09:08;;;;;;;0.90;0.70;;;;;;;21.36;26.32;101526.25;4998927;28;20215;-69
2023/06/04 10:11:36;;;;;;;1.17;1.07;;;;;;;21.42;26.42;101532.81;4999384;28;20215;-70
2023/06/04 10:14:07;;;;;;;1.97;0.80;;;;;;;21.45;25.55;101536.66;4995118;28;20747;-69
2023/06/04 10:16:38;;;;;;;1.10;0.80;;;;;;;21.49;25.12;101532.09;4996572;28;20215;-69
2023/06/04 10:19:05;;;;;;;2.00;0.93;;;;;;;21.49;24.97;101526.72;4998100;28;20291;-69
2023/06/04 10:21:34;;;;;;;1.00;0.80;;;;;;;21.53;25.14;101522.13;5000065;28;20216;-69
2023/06/04 10:24:01;;;;;;;2.00;0.87;;;;;;;21.56;26.49;101519.44;4997874;28;20215;-69
2023/06/04 10:26:28;;;;;;;1.73;1.00;;;;;;;21.63;26.25;101521.41;4997370;28;20240;-69
2023/06/04 10:28:54;;;;;;;1.70;0.77;;;;;;;21.70;27.99;101526.84;4994782;28;20204;-70
2023/06/04 10:31:20;;;;;;;1.83;0.87;;;;;;;21.77;26.51;101524.19;4997826;28;20231;-69
2023/06/04 10:33:49;;;;;;;2.20;0.80;;;;;;;21.82;26.86;101524.59;4997211;28;20220;-70
2023/06/04 10:36:22;;;;;;;1.50;0.87;;;;;;;21.88;26.87;101516.94;4997117;28;20219;-69
2023/06/04 10:38:50;;;;;;;0.70;0.63;;;;;;;21.93;25.37;101527.34;4994811;28;20208;-70
2023/06/04 10:41:18;;;;;;;0.77;0.77;;;;;;;22.02;26.93;101517.75;4994546;28;20212;-70
2023/06/04 10:43:46;;;;;;;1.43;0.50;;;;;;;22.09;25.78;101519.72;4995158;28;20228;-70
2023/06/04 10:46:13;;;;;;;1.33;0.90;;;;;;;22.15;24.71;101523.56;4998976;28;20208;-70
2023/06/04 10:48:47;;;;;;;1.03;0.67;;;;;;;22.20;24.23;101501.66;4999180;28;20274;-69
2023/06/04 10:51:14;;;;;;;1.87;1.03;;;;;;;22.22;24.38;101504.72;4997917;28;20262;-69
2023/06/04 10:53:41;;;;;;;1.77;1.00;;;;;;;22.26;24.56;101500.91;4997314;28;20250;-70
2023/06/04 10:56:07;;;;;;;1.37;0.90;;;;;;;22.30;24.28;101496.28;4997154;28;20207;-69
2023/06/04 10:58:34;;;;;;;1.77;0.90;;;;;;;22.29;24.70;101500.13;4997152;28;20203;-69
2023/06/04 11:01:01;;;;;;;1.93;0.90;;;;;;;22.33;25.43;101502.81;4997150;28;20602;-70
2023/06/04 11:03:36;;;;;;;1.23;0.90;;;;;;;22.39;25.03;101501.28;4996358;28;20231;-69
2023/06/04 11:06:16;;;;;;;1.13;0.83;;;;;;;22.44;23.85;101498.25;4994238;28;20820;-71
2023/06/04 11:08:43;;;;;;;1.23;0.90;;;;;;;22.44;25.06;101503.66;4991513;28;20211;-70
2023/06/04 11:11:13;;;;;;;1.63;0.83;;;;;;;22.46;23.42;101506.75;4996790;28;20709;-69
2023/06/04 11:13:39;;;;;;;1.50;0.83;;;;;;;22.50;23.67;101505.56;4995965;28;20220;-69
2023/06/04 11:16:15;;;;;;;1.20;1.10;;;;;;;22.53;23.38;101496.75;4999047;28;20684;-73
2023/06/04 11:18:41;;;;;;;5.63;0.73;;;;;;;22.58;24.31;101498.28;5001337;28;20207;-69
2023/06/04 11:21:11;;;;;;;1.27;0.93;;;;;;;22.62;23.98;101493.66;5002268;28;20205;-69
2023/06/04 11:23:37;;;;;;;1.13;0.83;;;;;;;22.66;24.86;101491.75;5002332;28;20224;-69
2023/06/04 11:26:04;;;;;;;1.37;0.90;;;;;;;22.69;25.08;101490.97;5002527;28;20208;-69
2023/06/04 11:28:30;;;;;;;1.17;1.00;;;;;;;22.73;24.80;101492.53;5004650;28;20291;-70
2023/06/04 11:30:57;;;;;;;4.40;0.93;;;;;;;22.78;23.88;101486.75;5004673;28;21509;-69
2023/06/04 11:33:24;;;;;;;1.57;1.10;;;;;;;22.85;24.47;101491.34;5005687;28;20310;-70